Terminal Aerodrome Forecast
Issued by NWS

Home | Current Version | Previous Version | Text Only | Print | Product List | Glossary On
Versions: 1 2 3 4 5 6 7 8 9 10 11 12 13 14 15 16 17 18 19 20 21 22
000
FTUS41 KGYX 251120
TAFLEB
TAF
KLEB 251120Z 2512/2612 14006KT 3SM -SN SCT025 OVC050
     FM251400 14008KT 1SM -SN OVC015
      TEMPO 2514/2517 1/2SM SN BKN007
     FM251800 15009KT 1 1/2SM -RADZ OVC010
     FM252300 14006KT P6SM BKN007
     FM260600 25007KT P6SM SCT040=

USA.gov is the U.S. government's official web portal to all federal, state and local government web resources and services.